sensor_id;sensor_type;location;lat;lon;timestamp;pressure;altitude;pressure_sealevel;temperature;humidity
28267;BME280;15525;45.568;5.448;2023-02-26T00:01:36;96884.94;;;7.75;49.17
28267;BME280;15525;45.568;5.448;2023-02-26T00:04:03;96892.16;;;7.70;49.18
28267;BME280;15525;45.568;5.448;2023-02-26T00:06:32;96891.25;;;7.51;49.74
28267;BME280;15525;45.568;5.448;2023-02-26T00:08:57;96893.78;;;7.66;49.73
28267;BME280;15525;45.568;5.448;2023-02-26T00:11:23;96878.56;;;7.38;49.92
28267;BME280;15525;45.568;5.448;2023-02-26T00:13:49;96896.16;;;7.39;50.02
28267;BME280;15525;45.568;5.448;2023-02-26T00:18:46;96897.66;;;7.50;49.85
28267;BME280;15525;45.568;5.448;2023-02-26T00:21:20;96891.94;;;7.28;50.41
28267;BME280;15525;45.568;5.448;2023-02-26T00:23:46;96874.00;;;7.05;50.71
28267;BME280;15525;45.568;5.448;2023-02-26T00:26:11;96887.19;;;7.20;50.44
28267;BME280;15525;45.568;5.448;2023-02-26T00:28:37;96879.44;;;7.28;50.14
28267;BME280;15525;45.568;5.448;2023-02-26T00:31:02;96882.84;;;7.34;50.33
28267;BME280;15525;45.568;5.448;2023-02-26T00:33:28;96890.97;;;7.14;50.55
28267;BME280;15525;45.568;5.448;2023-02-26T00:35:59;96897.47;;;6.98;51.09
28267;BME280;15525;45.568;5.448;2023-02-26T00:38:31;96896.94;;;6.91;51.03
28267;BME280;15525;45.568;5.448;2023-02-26T00:40:59;96902.53;;;6.89;51.15
28267;BME280;15525;45.568;5.448;2023-02-26T00:43:25;96890.94;;;6.70;51.44
28267;BME280;15525;45.568;5.448;2023-02-26T00:48:43;96897.03;;;6.76;52.02
28267;BME280;15525;45.568;5.448;2023-02-26T00:51:27;96906.28;;;6.88;51.48
28267;BME280;15525;45.568;5.448;2023-02-26T00:56:41;96887.72;;;6.78;51.32
28267;BME280;15525;45.568;5.448;2023-02-26T00:59:07;96906.28;;;6.88;51.45
28267;BME280;15525;45.568;5.448;2023-02-26T01:01:32;96880.56;;;6.69;51.46
28267;BME280;15525;45.568;5.448;2023-02-26T01:03:58;96887.50;;;6.60;51.95
28267;BME280;15525;45.568;5.448;2023-02-26T01:06:27;96901.56;;;6.70;51.90
28267;BME280;15525;45.568;5.448;2023-02-26T01:09:04;96909.75;;;6.79;51.85
28267;BME280;15525;45.568;5.448;2023-02-26T01:11:35;96909.50;;;6.80;51.49
28267;BME280;15525;45.568;5.448;2023-02-26T01:14:02;96884.34;;;6.58;51.91
28267;BME280;15525;45.568;5.448;2023-02-26T01:16:29;96885.44;;;6.52;52.02
28267;BME280;15525;45.568;5.448;2023-02-26T01:19:26;96892.94;;;6.30;52.84
28267;BME280;15525;45.568;5.448;2023-02-26T01:21:55;96894.22;;;6.47;52.52
28267;BME280;15525;45.568;5.448;2023-02-26T01:24:24;96896.59;;;6.49;52.30
28267;BME280;15525;45.568;5.448;2023-02-26T01:26:51;96881.50;;;6.34;52.20
28267;BME280;15525;45.568;5.448;2023-02-26T01:29:17;96894.53;;;6.31;52.65
28267;BME280;15525;45.568;5.448;2023-02-26T01:34:25;96878.25;;;6.52;52.10
28267;BME280;15525;45.568;5.448;2023-02-26T01:42:39;96887.56;;;6.50;52.13
28267;BME280;15525;45.568;5.448;2023-02-26T01:45:13;96893.41;;;6.57;52.32
28267;BME280;15525;45.568;5.448;2023-02-26T01:47:57;96879.28;;;6.61;52.33
28267;BME280;15525;45.568;5.448;2023-02-26T01:50:26;96879.59;;;6.50;51.90
28267;BME280;15525;45.568;5.448;2023-02-26T01:53:20;96880.28;;;6.75;52.17
28267;BME280;15525;45.568;5.448;2023-02-26T01:55:50;96877.81;;;6.94;51.94
28267;BME280;15525;45.568;5.448;2023-02-26T01:58:18;96863.47;;;6.90;51.38
28267;BME280;15525;45.568;5.448;2023-02-26T02:00:45;96875.19;;;6.84;51.65
28267;BME280;15525;45.568;5.448;2023-02-26T02:03:11;96881.56;;;6.83;51.98
28267;BME280;15525;45.568;5.448;2023-02-26T02:05:49;96887.66;;;6.88;52.50
28267;BME280;15525;45.568;5.448;2023-02-26T02:08:18;96885.78;;;6.94;52.18
28267;BME280;15525;45.568;5.448;2023-02-26T02:10:45;96884.16;;;6.93;51.89
28267;BME280;15525;45.568;5.448;2023-02-26T02:13:24;96879.84;;;7.02;52.23
28267;BME280;15525;45.568;5.448;2023-02-26T02:21:40;96869.09;;;6.78;52.33
28267;BME280;15525;45.568;5.448;2023-02-26T02:27:00;96870.22;;;6.72;52.21
28267;BME280;15525;45.568;5.448;2023-02-26T02:32:22;96867.34;;;6.54;52.45
28267;BME280;15525;45.568;5.448;2023-02-26T02:34:59;96845.19;;;6.00;52.56
28267;BME280;15525;45.568;5.448;2023-02-26T02:37:38;96877.22;;;6.43;52.24
28267;BME280;15525;45.568;5.448;2023-02-26T02:40:10;96864.19;;;6.52;51.97
28267;BME280;15525;45.568;5.448;2023-02-26T02:43:24;96865.59;;;6.24;52.56
28267;BME280;15525;45.568;5.448;2023-02-26T02:48:21;96879.59;;;6.50;51.63
28267;BME280;15525;45.568;5.448;2023-02-26T02:51:05;96861.69;;;6.02;52.48
28267;BME280;15525;45.568;5.448;2023-02-26T02:53:58;96876.78;;;6.06;52.18
28267;BME280;15525;45.568;5.448;2023-02-26T02:56:29;96880.53;;;5.95;52.46
28267;BME280;15525;45.568;5.448;2023-02-26T02:59:10;96856.09;;;5.88;52.29
28267;BME280;15525;45.568;5.448;2023-02-26T03:01:40;96868.28;;;6.09;52.01
28267;BME280;15525;45.568;5.448;2023-02-26T03:04:12;96872.28;;;6.07;51.99
28267;BME280;15525;45.568;5.448;2023-02-26T03:06:39;96881.75;;;6.33;51.59
28267;BME280;15525;45.568;5.448;2023-02-26T03:09:06;96890.81;;;6.27;51.81
28267;BME280;15525;45.568;5.448;2023-02-26T03:11:32;96876.19;;;6.29;51.83
28267;BME280;15525;45.568;5.448;2023-02-26T03:13:58;96871.69;;;6.30;51.24
28267;BME280;15525;45.568;5.448;2023-02-26T03:27:33;96879.69;;;6.15;51.64
28267;BME280;15525;45.568;5.448;2023-02-26T03:35:38;96891.41;;;5.99;51.67
28267;BME280;15525;45.568;5.448;2023-02-26T03:38:13;96874.69;;;5.78;52.11
28267;BME280;15525;45.568;5.448;2023-02-26T03:41:09;96887.16;;;5.73;52.07
28267;BME280;15525;45.568;5.448;2023-02-26T03:46:08;96878.69;;;5.81;52.18
28267;BME280;15525;45.568;5.448;2023-02-26T03:48:36;96872.81;;;5.64;52.44
28267;BME280;15525;45.568;5.448;2023-02-26T03:51:07;96854.78;;;5.66;51.96
28267;BME280;15525;45.568;5.448;2023-02-26T03:53:39;96881.59;;;5.99;51.61
28267;BME280;15525;45.568;5.448;2023-02-26T03:56:15;96880.00;;;5.88;51.89
28267;BME280;15525;45.568;5.448;2023-02-26T03:58:41;96870.47;;;5.82;51.61
28267;BME280;15525;45.568;5.448;2023-02-26T04:01:10;96867.00;;;5.82;52.04
28267;BME280;15525;45.568;5.448;2023-02-26T04:04:03;96869.63;;;5.77;52.17
28267;BME280;15525;45.568;5.448;2023-02-26T04:06:30;96868.31;;;5.64;52.42
28267;BME280;15525;45.568;5.448;2023-02-26T04:08:56;96865.94;;;5.63;52.24
28267;BME280;15525;45.568;5.448;2023-02-26T04:11:23;96876.00;;;5.46;52.63
28267;BME280;15525;45.568;5.448;2023-02-26T04:13:50;96885.31;;;5.63;52.52
28267;BME280;15525;45.568;5.448;2023-02-26T04:16:16;96881.06;;;5.67;52.21
28267;BME280;15525;45.568;5.448;2023-02-26T04:18:42;96894.59;;;5.71;52.33
28267;BME280;15525;45.568;5.448;2023-02-26T04:21:16;96890.06;;;5.66;52.73
28267;BME280;15525;45.568;5.448;2023-02-26T04:23:43;96899.34;;;5.69;52.30
28267;BME280;15525;45.568;5.448;2023-02-26T04:26:08;96885.59;;;5.52;52.47
28267;BME280;15525;45.568;5.448;2023-02-26T04:28:34;96889.00;;;5.52;52.63
28267;BME280;15525;45.568;5.448;2023-02-26T04:31:02;96886.38;;;5.47;52.52
28267;BME280;15525;45.568;5.448;2023-02-26T04:33:29;96896.19;;;5.62;52.43
28267;BME280;15525;45.568;5.448;2023-02-26T04:35:55;96895.13;;;5.53;52.40
28267;BME280;15525;45.568;5.448;2023-02-26T04:38:21;96905.19;;;5.41;52.95
28267;BME280;15525;45.568;5.448;2023-02-26T04:40:48;96880.25;;;5.22;52.88
28267;BME280;15525;45.568;5.448;2023-02-26T04:43:13;96902.25;;;5.17;53.40
28267;BME280;15525;45.568;5.448;2023-02-26T04:45:39;96880.50;;;5.15;53.15
28267;BME280;15525;45.568;5.448;2023-02-26T04:48:04;96886.59;;;5.16;53.14
28267;BME280;15525;45.568;5.448;2023-02-26T04:50:30;96895.91;;;5.23;53.09
28267;BME280;15525;45.568;5.448;2023-02-26T04:52:55;96895.09;;;5.23;53.30
28267;BME280;15525;45.568;5.448;2023-02-26T04:55:21;96886.59;;;5.11;53.58
28267;BME280;15525;45.568;5.448;2023-02-26T04:57:46;96883.38;;;4.99;53.49
28267;BME280;15525;45.568;5.448;2023-02-26T05:00:12;96887.09;;;4.93;53.85
28267;BME280;15525;45.568;5.448;2023-02-26T05:02:37;96885.28;;;5.18;53.60
28267;BME280;15525;45.568;5.448;2023-02-26T05:05:03;96886.59;;;5.16;53.32
28267;BME280;15525;45.568;5.448;2023-02-26T05:07:29;96877.03;;;5.05;53.50
28267;BME280;15525;45.568;5.448;2023-02-26T05:09:54;96887.38;;;5.11;53.53
28267;BME280;15525;45.568;5.448;2023-02-26T05:12:19;96885.03;;;5.20;53.31
28267;BME280;15525;45.568;5.448;2023-02-26T05:14:45;96875.50;;;5.29;53.16
28267;BME280;15525;45.568;5.448;2023-02-26T05:17:10;96869.38;;;5.18;53.44
28267;BME280;15525;45.568;5.448;2023-02-26T05:19:35;96874.66;;;5.03;53.79
28267;BME280;15525;45.568;5.448;2023-02-26T05:22:01;96874.34;;;4.95;53.92
28267;BME280;15525;45.568;5.448;2023-02-26T05:24:26;96872.53;;;5.00;53.86
28267;BME280;15525;45.568;5.448;2023-02-26T05:26:52;96867.47;;;5.04;53.57
28267;BME280;15525;45.568;5.448;2023-02-26T05:29:17;96876.50;;;4.93;53.65
28267;BME280;15525;45.568;5.448;2023-02-26T05:31:43;96865.03;;;4.67;54.44
28267;BME280;15525;45.568;5.448;2023-02-26T05:34:09;96869.03;;;4.75;54.21
28267;BME280;15525;45.568;5.448;2023-02-26T05:36:34;96864.53;;;4.80;54.06
28267;BME280;15525;45.568;5.448;2023-02-26T05:39:00;96870.69;;;5.06;53.69
28267;BME280;15525;45.568;5.448;2023-02-26T05:41:25;96871.22;;;5.13;53.41
28267;BME280;15525;45.568;5.448;2023-02-26T05:43:51;96875.44;;;4.94;53.69
28267;BME280;15525;45.568;5.448;2023-02-26T05:46:16;96852.84;;;4.71;54.26
28267;BME280;15525;45.568;5.448;2023-02-26T05:48:42;96852.53;;;4.63;54.73
28267;BME280;15525;45.568;5.448;2023-02-26T05:51:07;96866.91;;;4.82;54.57
28267;BME280;15525;45.568;5.448;2023-02-26T05:53:33;96869.06;;;4.95;54.10
28267;BME280;15525;45.568;5.448;2023-02-26T05:55:58;96864.31;;;4.97;54.11
28267;BME280;15525;45.568;5.448;2023-02-26T05:58:23;96875.69;;;4.97;53.71
28267;BME280;15525;45.568;5.448;2023-02-26T06:00:49;96883.09;;;4.85;54.09
28267;BME280;15525;45.568;5.448;2023-02-26T06:03:14;96889.94;;;4.71;54.38
28267;BME280;15525;45.568;5.448;2023-02-26T06:05:40;96876.41;;;4.68;54.41
28267;BME280;15525;45.568;5.448;2023-02-26T06:08:05;96882.75;;;4.67;54.56
28267;BME280;15525;45.568;5.448;2023-02-26T06:10:31;96880.13;;;4.72;54.47
28267;BME280;15525;45.568;5.448;2023-02-26T06:12:57;96877.44;;;4.57;54.48
28267;BME280;15525;45.568;5.448;2023-02-26T06:15:22;96872.41;;;4.60;54.47
28267;BME280;15525;45.568;5.448;2023-02-26T06:17:48;96863.13;;;4.53;54.79
28267;BME280;15525;45.568;5.448;2023-02-26T06:20:13;96870.56;;;4.66;54.57
28267;BME280;15525;45.568;5.448;2023-02-26T06:22:39;96862.63;;;4.61;54.03
28267;BME280;15525;45.568;5.448;2023-02-26T06:25:05;96875.78;;;4.46;54.88
28267;BME280;15525;45.568;5.448;2023-02-26T06:27:30;96870.44;;;4.36;55.13
28267;BME280;15525;45.568;5.448;2023-02-26T06:29:56;96880.03;;;4.42;54.84
28267;BME280;15525;45.568;5.448;2023-02-26T06:32:21;96883.25;;;4.54;54.65
28267;BME280;15525;45.568;5.448;2023-02-26T06:34:46;96877.16;;;4.48;54.81
28267;BME280;15525;45.568;5.448;2023-02-26T06:37:12;96892.75;;;4.50;54.62
28267;BME280;15525;45.568;5.448;2023-02-26T06:39:37;96886.72;;;4.59;54.50
28267;BME280;15525;45.568;5.448;2023-02-26T06:42:03;96872.59;;;4.44;54.61
28267;BME280;15525;45.568;5.448;2023-02-26T06:44:29;96876.88;;;4.55;54.50
28267;BME280;15525;45.568;5.448;2023-02-26T06:46:54;96884.88;;;4.60;54.46
28267;BME280;15525;45.568;5.448;2023-02-26T06:49:20;96889.13;;;4.66;54.11
28267;BME280;15525;45.568;5.448;2023-02-26T06:51:45;96897.13;;;4.86;54.21
28267;BME280;15525;45.568;5.448;2023-02-26T06:54:11;96894.19;;;4.77;54.07
28267;BME280;15525;45.568;5.448;2023-02-26T06:56:36;96895.53;;;4.80;54.36
28267;BME280;15525;45.568;5.448;2023-02-26T06:59:01;96903.44;;;4.70;54.41
28267;BME280;15525;45.568;5.448;2023-02-26T07:01:27;96903.97;;;4.67;54.50
28267;BME280;15525;45.568;5.448;2023-02-26T07:03:53;96897.34;;;4.69;54.18
28267;BME280;15525;45.568;5.448;2023-02-26T07:06:18;96891.75;;;4.61;54.31
28267;BME280;15525;45.568;5.448;2023-02-26T07:08:43;96905.06;;;4.81;54.16
28267;BME280;15525;45.568;5.448;2023-02-26T07:11:09;96901.66;;;4.95;53.61
28267;BME280;15525;45.568;5.448;2023-02-26T07:13:36;96908.19;;;4.68;54.29
28267;BME280;15525;45.568;5.448;2023-02-26T07:16:03;96902.13;;;4.72;54.26
28267;BME280;15525;45.568;5.448;2023-02-26T07:18:32;96898.53;;;5.13;53.54
28267;BME280;15525;45.568;5.448;2023-02-26T07:20:58;96886.59;;;5.11;52.77
28267;BME280;15525;45.568;5.448;2023-02-26T07:23:23;96899.88;;;5.36;52.69
28267;BME280;15525;45.568;5.448;2023-02-26T07:25:48;96903.09;;;5.63;52.46
28267;BME280;15525;45.568;5.448;2023-02-26T07:28:14;96907.88;;;5.81;52.04
28267;BME280;15525;45.568;5.448;2023-02-26T07:30:39;96900.94;;;5.55;52.13
28267;BME280;15525;45.568;5.448;2023-02-26T07:33:06;96904.41;;;5.65;52.16
28267;BME280;15525;45.568;5.448;2023-02-26T07:35:32;96916.88;;;5.65;51.97
28267;BME280;15525;45.568;5.448;2023-02-26T07:37:57;96894.88;;;5.84;51.90
28267;BME280;15525;45.568;5.448;2023-02-26T07:40:22;96909.44;;;5.97;51.44
28267;BME280;15525;45.568;5.448;2023-02-26T07:42:48;96904.16;;;6.07;51.27
28267;BME280;15525;45.568;5.448;2023-02-26T07:45:14;96906.53;;;6.13;50.92
28267;BME280;15525;45.568;5.448;2023-02-26T07:47:42;96909.47;;;5.87;51.15
28267;BME280;15525;45.568;5.448;2023-02-26T07:50:08;96915.31;;;5.99;51.08
28267;BME280;15525;45.568;5.448;2023-02-26T07:52:35;96909.72;;;6.10;50.70
28267;BME280;15525;45.568;5.448;2023-02-26T07:55:00;96904.03;;;6.47;50.26
28267;BME280;15525;45.568;5.448;2023-02-26T07:57:25;96891.22;;;6.64;49.52
28267;BME280;15525;45.568;5.448;2023-02-26T07:59:51;96902.50;;;6.26;50.05
28267;BME280;15525;45.568;5.448;2023-02-26T08:02:16;96906.50;;;6.28;49.53
28267;BME280;15525;45.568;5.448;2023-02-26T08:04:43;96900.31;;;6.53;49.66
28267;BME280;15525;45.568;5.448;2023-02-26T08:07:08;96897.06;;;6.71;49.55
28267;BME280;15525;45.568;5.448;2023-02-26T08:09:34;96902.25;;;6.27;49.96
28267;BME280;15525;45.568;5.448;2023-02-26T08:12:00;96886.84;;;6.19;49.17
28267;BME280;15525;45.568;5.448;2023-02-26T08:14:25;96898.28;;;6.25;49.47
28267;BME280;15525;45.568;5.448;2023-02-26T08:16:51;96902.94;;;6.63;48.75
28267;BME280;15525;45.568;5.448;2023-02-26T08:19:17;96886.81;;;6.34;48.95
28267;BME280;15525;45.568;5.448;2023-02-26T08:21:42;96896.22;;;6.75;48.63
28267;BME280;15525;45.568;5.448;2023-02-26T08:24:10;96888.78;;;7.26;47.49
28267;BME280;15525;45.568;5.448;2023-02-26T08:26:36;96897.63;;;6.58;47.89
28267;BME280;15525;45.568;5.448;2023-02-26T08:29:03;96886.72;;;6.64;47.95
28267;BME280;15525;45.568;5.448;2023-02-26T08:31:29;96899.38;;;6.87;48.11
28267;BME280;15525;45.568;5.448;2023-02-26T08:33:55;96872.22;;;7.34;46.70
28267;BME280;15525;45.568;5.448;2023-02-26T08:36:22;96873.50;;;7.03;46.91
28267;BME280;15525;45.568;5.448;2023-02-26T08:38:48;96875.34;;;7.02;46.27
28267;BME280;15525;45.568;5.448;2023-02-26T08:41:13;96891.19;;;6.69;47.91
28267;BME280;15525;45.568;5.448;2023-02-26T08:43:39;96894.78;;;6.34;47.53
28267;BME280;15525;45.568;5.448;2023-02-26T08:46:04;96861.00;;;6.45;47.65
28267;BME280;15525;45.568;5.448;2023-02-26T08:48:30;96894.28;;;6.91;47.40
28267;BME280;15525;45.568;5.448;2023-02-26T08:50:56;96895.50;;;7.08;46.88
28267;BME280;15525;45.568;5.448;2023-02-26T08:53:21;96908.19;;;6.73;47.68
28267;BME280;15525;45.568;5.448;2023-02-26T08:55:51;96900.66;;;6.95;47.21
28267;BME280;15525;45.568;5.448;2023-02-26T08:58:17;96901.06;;;7.17;46.49
28267;BME280;15525;45.568;5.448;2023-02-26T09:00:44;96903.16;;;7.20;47.23
28267;BME280;15525;45.568;5.448;2023-02-26T09:03:09;96870.59;;;6.94;46.87
28267;BME280;15525;45.568;5.448;2023-02-26T09:05:35;96899.38;;;7.31;46.82
28267;BME280;15525;45.568;5.448;2023-02-26T09:08:01;96898.63;;;7.64;45.64
28267;BME280;15525;45.568;5.448;2023-02-26T09:10:26;96881.50;;;7.70;45.03
28267;BME280;15525;45.568;5.448;2023-02-26T09:12:52;96901.47;;;8.34;44.81
28267;BME280;15525;45.568;5.448;2023-02-26T09:15:18;96898.97;;;7.86;44.83
28267;BME280;15525;45.568;5.448;2023-02-26T09:17:44;96903.03;;;8.07;44.68
28267;BME280;15525;45.568;5.448;2023-02-26T09:20:11;96898.34;;;8.51;44.17
28267;BME280;15525;45.568;5.448;2023-02-26T09:22:37;96878.63;;;9.12;43.37
28267;BME280;15525;45.568;5.448;2023-02-26T09:25:03;96879.53;;;9.58;42.71
28267;BME280;15525;45.568;5.448;2023-02-26T09:27:29;96873.78;;;8.96;42.61
28267;BME280;15525;45.568;5.448;2023-02-26T09:29:54;96881.09;;;8.43;43.90
28267;BME280;15525;45.568;5.448;2023-02-26T09:32:19;96878.31;;;8.01;43.96
28267;BME280;15525;45.568;5.448;2023-02-26T09:34:45;96885.34;;;7.59;44.51
28267;BME280;15525;45.568;5.448;2023-02-26T09:37:10;96910.19;;;7.44;45.60
28267;BME280;15525;45.568;5.448;2023-02-26T09:39:36;96915.59;;;7.34;45.39
28267;BME280;15525;45.568;5.448;2023-02-26T09:45:05;96913.63;;;7.06;44.97
28267;BME280;15525;45.568;5.448;2023-02-26T09:47:47;96913.69;;;6.96;45.17
28267;BME280;15525;45.568;5.448;2023-02-26T09:50:27;96924.75;;;7.57;44.70
28267;BME280;15525;45.568;5.448;2023-02-26T09:55:35;96909.97;;;7.41;44.38
28267;BME280;15525;45.568;5.448;2023-02-26T09:58:16;96905.06;;;7.91;43.19
28267;BME280;15525;45.568;5.448;2023-02-26T10:00:49;96908.28;;;8.17;43.41
28267;BME280;15525;45.568;5.448;2023-02-26T10:03:33;96889.31;;;7.95;42.31
28267;BME280;15525;45.568;5.448;2023-02-26T10:14:19;96882.38;;;9.48;39.88
28267;BME280;15525;45.568;5.448;2023-02-26T10:16:51;96893.47;;;9.74;39.87
28267;BME280;15525;45.568;5.448;2023-02-26T10:19:24;96889.25;;;9.36;40.29
28267;BME280;15525;45.568;5.448;2023-02-26T10:21:56;96895.22;;;8.67;41.00
28267;BME280;15525;45.568;5.448;2023-02-26T10:24:57;96877.19;;;8.36;40.66
28267;BME280;15525;45.568;5.448;2023-02-26T10:27:47;96896.75;;;8.26;41.50
28267;BME280;15525;45.568;5.448;2023-02-26T10:33:52;96908.97;;;8.27;40.30
28267;BME280;15525;45.568;5.448;2023-02-26T10:36:29;96896.25;;;8.71;40.59
28267;BME280;15525;45.568;5.448;2023-02-26T10:39:31;96896.72;;;8.55;39.07
28267;BME280;15525;45.568;5.448;2023-02-26T10:42:00;96906.81;;;9.00;40.57
28267;BME280;15525;45.568;5.448;2023-02-26T10:44:36;96870.97;;;8.87;39.57
28267;BME280;15525;45.568;5.448;2023-02-26T10:47:12;96890.09;;;8.94;38.65
28267;BME280;15525;45.568;5.448;2023-02-26T10:49:55;96891.41;;;9.34;39.48
28267;BME280;15525;45.568;5.448;2023-02-26T10:52:26;96886.78;;;9.21;37.83
28267;BME280;15525;45.568;5.448;2023-02-26T11:00:25;96887.63;;;9.35;37.40
28267;BME280;15525;45.568;5.448;2023-02-26T11:02:52;96884.59;;;9.60;37.47
28267;BME280;15525;45.568;5.448;2023-02-26T11:05:22;96888.69;;;9.71;36.90
28267;BME280;15525;45.568;5.448;2023-02-26T11:07:51;96885.97;;;9.57;35.23
28267;BME280;15525;45.568;5.448;2023-02-26T11:10:22;96863.31;;;9.36;36.63
28267;BME280;15525;45.568;5.448;2023-02-26T11:12:47;96883.81;;;9.59;36.24
28267;BME280;15525;45.568;5.448;2023-02-26T11:15:16;96902.88;;;9.85;35.72
28267;BME280;15525;45.568;5.448;2023-02-26T11:17:44;96885.53;;;9.69;35.53
28267;BME280;15525;45.568;5.448;2023-02-26T11:20:28;96897.09;;;9.27;33.90
28267;BME280;15525;45.568;5.448;2023-02-26T11:22:56;96912.22;;;8.95;35.03
28267;BME280;15525;45.568;5.448;2023-02-26T11:25:27;96903.50;;;8.89;35.80
28267;BME280;15525;45.568;5.448;2023-02-26T11:30:45;96923.28;;;9.44;36.11
28267;BME280;15525;45.568;5.448;2023-02-26T11:33:21;96905.63;;;9.29;35.10
28267;BME280;15525;45.568;5.448;2023-02-26T11:35:48;96908.81;;;9.50;35.42
28267;BME280;15525;45.568;5.448;2023-02-26T11:38:18;96897.84;;;9.51;33.36
28267;BME280;15525;45.568;5.448;2023-02-26T11:40:48;96888.28;;;9.64;34.40
28267;BME280;15525;45.568;5.448;2023-02-26T11:43:18;96893.81;;;9.86;34.71
28267;BME280;15525;45.568;5.448;2023-02-26T11:45:47;96900.84;;;9.95;33.76
28267;BME280;15525;45.568;5.448;2023-02-26T11:48:23;96886.34;;;9.51;33.03
28267;BME280;15525;45.568;5.448;2023-02-26T11:50:54;96898.34;;;9.85;33.80
28267;BME280;15525;45.568;5.448;2023-02-26T11:53:33;96897.06;;;9.83;32.21
28267;BME280;15525;45.568;5.448;2023-02-26T11:56:02;96894.13;;;9.66;33.04
28267;BME280;15525;45.568;5.448;2023-02-26T11:58:34;96878.19;;;9.93;32.25
28267;BME280;15525;45.568;5.448;2023-02-26T12:01:01;96885.63;;;10.68;32.86
28267;BME280;15525;45.568;5.448;2023-02-26T12:03:30;96880.94;;;9.88;31.48
28267;BME280;15525;45.568;5.448;2023-02-26T12:05:58;96881.22;;;10.05;32.74
28267;BME280;15525;45.568;5.448;2023-02-26T12:11:05;96855.41;;;9.82;33.06
28267;BME280;15525;45.568;5.448;2023-02-26T12:14:00;96870.25;;;9.88;32.52
28267;BME280;15525;45.568;5.448;2023-02-26T12:19:39;96873.03;;;9.64;32.54
28267;BME280;15525;45.568;5.448;2023-02-26T12:30:53;96865.84;;;9.78;31.22
28267;BME280;15525;45.568;5.448;2023-02-26T12:33:49;96867.19;;;10.40;30.91
28267;BME280;15525;45.568;5.448;2023-02-26T12:56:09;96864.31;;;9.91;31.59
28267;BME280;15525;45.568;5.448;2023-02-26T13:07:35;96838.09;;;9.93;30.66
28267;BME280;15525;45.568;5.448;2023-02-26T13:18:14;96793.34;;;11.59;29.51
28267;BME280;15525;45.568;5.448;2023-02-26T13:20:53;96828.31;;;11.32;29.85
28267;BME280;15525;45.568;5.448;2023-02-26T13:23:23;96813.78;;;10.35;30.21
28267;BME280;15525;45.568;5.448;2023-02-26T13:25:58;96851.06;;;10.58;29.75
28267;BME280;15525;45.568;5.448;2023-02-26T13:33:43;96810.16;;;11.95;28.84
28267;BME280;15525;45.568;5.448;2023-02-26T13:36:10;96811.72;;;12.74;29.23
28267;BME280;15525;45.568;5.448;2023-02-26T13:51:58;96823.44;;;11.34;29.26
28267;BME280;15525;45.568;5.448;2023-02-26T13:54:33;96858.31;;;11.07;27.99
28267;BME280;15525;45.568;5.448;2023-02-26T13:57:52;96856.22;;;11.17;26.94
28267;BME280;15525;45.568;5.448;2023-02-26T14:13:20;96837.78;;;11.16;27.52
28267;BME280;15525;45.568;5.448;2023-02-26T14:15:58;96843.59;;;11.18;28.68
28267;BME280;15525;45.568;5.448;2023-02-26T14:23:49;96849.75;;;10.83;29.23
28267;BME280;15525;45.568;5.448;2023-02-26T14:26:17;96848.84;;;11.01;28.85
28267;BME280;15525;45.568;5.448;2023-02-26T14:31:46;96827.84;;;11.96;26.88
28267;BME280;15525;45.568;5.448;2023-02-26T14:34:27;96826.31;;;11.02;27.42
28267;BME280;15525;45.568;5.448;2023-02-26T14:36:57;96840.78;;;11.01;29.17
28267;BME280;15525;45.568;5.448;2023-02-26T14:39:48;96848.25;;;10.90;28.03
28267;BME280;15525;45.568;5.448;2023-02-26T14:42:34;96847.72;;;11.02;28.00
28267;BME280;15525;45.568;5.448;2023-02-26T14:45:19;96854.81;;;10.71;27.49
28267;BME280;15525;45.568;5.448;2023-02-26T14:47:48;96842.03;;;10.27;28.24
28267;BME280;15525;45.568;5.448;2023-02-26T14:50:16;96833.50;;;10.66;26.44
28267;BME280;15525;45.568;5.448;2023-02-26T14:57:53;96836.06;;;10.84;27.98
28267;BME280;15525;45.568;5.448;2023-02-26T15:06:22;96838.38;;;11.13;26.46
28267;BME280;15525;45.568;5.448;2023-02-26T15:16:59;96824.34;;;11.65;26.33
28267;BME280;15525;45.568;5.448;2023-02-26T15:22:39;96848.34;;;10.72;26.77
28267;BME280;15525;45.568;5.448;2023-02-26T15:24:54;96838.41;;;11.57;25.85
28267;BME280;15525;45.568;5.448;2023-02-26T15:27:20;96831.38;;;12.53;26.36
28267;BME280;15525;45.568;5.448;2023-02-26T15:29:46;96827.56;;;12.37;25.05
28267;BME280;15525;45.568;5.448;2023-02-26T15:32:22;96823.56;;;11.73;25.83
28267;BME280;15525;45.568;5.448;2023-02-26T15:34:58;96820.22;;;11.90;25.95
28267;BME280;15525;45.568;5.448;2023-02-26T15:37:26;96835.63;;;12.06;26.00
28267;BME280;15525;45.568;5.448;2023-02-26T15:39:53;96824.38;;;11.16;27.60
28267;BME280;15525;45.568;5.448;2023-02-26T15:42:28;96822.69;;;11.20;26.90
28267;BME280;15525;45.568;5.448;2023-02-26T15:44:59;96832.88;;;10.96;27.36
28267;BME280;15525;45.568;5.448;2023-02-26T15:47:26;96837.28;;;10.65;28.12
28267;BME280;15525;45.568;5.448;2023-02-26T15:49:53;96821.34;;;10.60;28.52
28267;BME280;15525;45.568;5.448;2023-02-26T15:52:21;96833.03;;;10.37;28.14
28267;BME280;15525;45.568;5.448;2023-02-26T15:55:03;96846.28;;;9.83;27.96
28267;BME280;15525;45.568;5.448;2023-02-26T15:57:30;96842.19;;;10.04;29.01
28267;BME280;15525;45.568;5.448;2023-02-26T16:00:09;96851.56;;;9.69;28.10
28267;BME280;15525;45.568;5.448;2023-02-26T16:02:35;96858.66;;;9.79;29.80
28267;BME280;15525;45.568;5.448;2023-02-26T16:05:02;96848.22;;;9.45;29.07
28267;BME280;15525;45.568;5.448;2023-02-26T16:07:28;96843.84;;;9.17;29.18
28267;BME280;15525;45.568;5.448;2023-02-26T16:09:54;96859.47;;;9.10;29.76
28267;BME280;15525;45.568;5.448;2023-02-26T16:12:34;96868.31;;;9.06;28.68
28267;BME280;15525;45.568;5.448;2023-02-26T16:15:06;96869.97;;;8.83;29.40
28267;BME280;15525;45.568;5.448;2023-02-26T16:17:39;96865.06;;;9.09;30.36
28267;BME280;15525;45.568;5.448;2023-02-26T16:20:13;96871.91;;;9.52;30.58
28267;BME280;15525;45.568;5.448;2023-02-26T16:22:45;96868.06;;;9.58;30.29
28267;BME280;15525;45.568;5.448;2023-02-26T16:25:19;96879.69;;;8.74;30.16
28267;BME280;15525;45.568;5.448;2023-02-26T16:27:51;96887.06;;;8.59;30.89
28267;BME280;15525;45.568;5.448;2023-02-26T16:30:23;96893.16;;;8.64;30.67
28267;BME280;15525;45.568;5.448;2023-02-26T16:32:52;96890.84;;;8.29;30.50